createdAt,value
2023-10-19T00:02:20.708Z,7.67
2023-10-19T00:04:47.950Z,9.13
2023-10-19T00:07:17.381Z,8.63
2023-10-19T00:09:47.618Z,7.93
2023-10-19T00:12:17.176Z,8.80
2023-10-19T00:14:44.213Z,8.23
2023-10-19T00:17:16.168Z,7.33
2023-10-19T00:20:04.622Z,7.50
2023-10-19T00:22:37.293Z,9.10
2023-10-19T00:25:05.124Z,8.37
2023-10-19T00:27:33.131Z,7.20
2023-10-19T00:30:07.643Z,7.23
2023-10-19T00:32:39.980Z,7.10
2023-10-19T00:35:28.150Z,7.07
2023-10-19T00:38:18.385Z,7.30
2023-10-19T00:40:51.756Z,7.53
2023-10-19T00:43:29.081Z,8.23
2023-10-19T00:45:58.021Z,8.63
2023-10-19T00:48:27.315Z,7.33
2023-10-19T00:51:07.995Z,8.70
2023-10-19T00:53:37.388Z,7.80
2023-10-19T00:56:07.262Z,6.20
2023-10-19T00:58:37.339Z,6.77
2023-10-19T01:01:08.485Z,5.77
2023-10-19T01:03:39.378Z,5.70
2023-10-19T01:06:10.993Z,5.83
2023-10-19T01:08:46.606Z,4.33
2023-10-19T01:11:16.714Z,4.00
2023-10-19T01:13:47.921Z,3.97
2023-10-19T01:16:22.183Z,2.40
2023-10-19T01:18:54.587Z,3.00
2023-10-19T01:21:36.997Z,2.60
2023-10-19T01:24:10.034Z,2.37
2023-10-19T01:26:39.028Z,3.63
2023-10-19T01:29:14.640Z,3.17
2023-10-19T01:31:53.509Z,2.30
2023-10-19T01:34:21.815Z,2.17
2023-10-19T01:36:51.290Z,2.93
2023-10-19T01:39:20.962Z,1.27
2023-10-19T01:41:56.310Z,4.80
2023-10-19T01:44:25.913Z,4.97
2023-10-19T01:46:52.850Z,7.50
2023-10-19T01:49:27.555Z,2.97
2023-10-19T01:51:55.318Z,2.77
2023-10-19T01:54:26.158Z,1.70
2023-10-19T01:56:56.078Z,2.37
2023-10-19T01:59:28.648Z,0.50
2023-10-19T02:01:56.371Z,2.43
2023-10-19T02:04:24.814Z,6.13
2023-10-19T02:06:53.392Z,1.87
2023-10-19T02:09:25.047Z,4.87
2023-10-19T02:11:57.038Z,2.67
2023-10-19T02:14:27.183Z,3.30
2023-10-19T02:16:58.111Z,1.83
2023-10-19T02:19:27.855Z,1.70
2023-10-19T02:21:57.030Z,3.03
2023-10-19T02:24:26.152Z,3.93
2023-10-19T02:26:56.575Z,1.50
2023-10-19T02:29:26.891Z,2.70
2023-10-19T02:31:54.831Z,3.50
2023-10-19T02:34:24.204Z,2.70
2023-10-19T02:36:51.451Z,3.77
2023-10-19T02:39:19.468Z,0.90
2023-10-19T02:41:49.117Z,1.37
2023-10-19T02:44:23.781Z,4.87
2023-10-19T02:46:53.191Z,7.33
2023-10-19T02:49:24.666Z,5.03
2023-10-19T02:51:52.500Z,2.37
2023-10-19T02:54:23.721Z,2.77
2023-10-19T02:56:53.113Z,3.07
2023-10-19T02:59:24.797Z,2.57
2023-10-19T03:01:53.459Z,2.33
2023-10-19T03:04:21.939Z,4.70
2023-10-19T03:06:49.314Z,2.83
2023-10-19T03:09:23.663Z,2.17
2023-10-19T03:11:53.895Z,1.80
2023-10-19T03:14:26.245Z,2.63
2023-10-19T03:16:54.173Z,4.63
2023-10-19T03:19:22.194Z,4.43
2023-10-19T03:21:50.434Z,3.77
2023-10-19T03:24:37.058Z,2.10
2023-10-19T03:27:10.327Z,7.23
2023-10-19T03:29:41.107Z,1.53
2023-10-19T03:32:08.951Z,2.70
2023-10-19T03:34:40.000Z,3.17
2023-10-19T03:37:13.355Z,2.97
2023-10-19T03:39:41.652Z,3.27
2023-10-19T03:42:10.267Z,4.27
2023-10-19T03:44:46.021Z,2.03
2023-10-19T03:47:15.672Z,3.70
2023-10-19T03:49:44.731Z,6.77
2023-10-19T03:52:28.090Z,4.40
2023-10-19T03:54:56.028Z,3.23
2023-10-19T03:57:26.240Z,5.33
2023-10-19T03:59:58.430Z,5.70
2023-10-19T04:02:30.181Z,4.67
2023-10-19T04:04:59.634Z,2.57
2023-10-19T04:07:28.244Z,5.03
2023-10-19T04:10:10.557Z,1.70
2023-10-19T04:12:43.388Z,7.40
2023-10-19T04:15:17.044Z,2.53
2023-10-19T04:17:45.840Z,4.83
2023-10-19T04:20:30.419Z,3.53
2023-10-19T04:23:06.731Z,2.97
2023-10-19T04:25:34.761Z,4.17
2023-10-19T04:28:02.749Z,2.67
2023-10-19T04:30:34.362Z,2.33
2023-10-19T04:33:03.128Z,2.80
2023-10-19T04:35:33.519Z,2.20
2023-10-19T04:38:02.418Z,5.63
2023-10-19T04:40:31.585Z,3.50
2023-10-19T04:42:59.722Z,6.10
2023-10-19T04:45:27.596Z,3.63
2023-10-19T04:47:56.992Z,2.93
2023-10-19T04:50:25.094Z,4.17
2023-10-19T04:52:53.141Z,2.53
2023-10-19T04:55:21.259Z,3.87
2023-10-19T04:57:50.263Z,3.80
2023-10-19T05:00:22.223Z,3.83
2023-10-19T05:02:53.344Z,3.63
2023-10-19T05:05:23.970Z,5.93
2023-10-19T05:07:51.958Z,3.53
2023-10-19T05:10:21.171Z,2.27
2023-10-19T05:12:49.205Z,1.87
2023-10-19T05:15:17.886Z,3.97
2023-10-19T05:17:46.801Z,1.87
2023-10-19T05:20:14.853Z,3.97
2023-10-19T05:22:44.198Z,3.07
2023-10-19T05:25:12.185Z,1.63
2023-10-19T05:27:40.212Z,4.17
2023-10-19T05:30:11.579Z,3.97
2023-10-19T05:32:39.788Z,6.03
2023-10-19T05:35:08.380Z,7.57
2023-10-19T05:37:36.363Z,2.87
2023-10-19T05:40:06.605Z,5.13
2023-10-19T05:42:35.956Z,5.13
2023-10-19T05:45:04.297Z,5.97
2023-10-19T05:47:32.389Z,5.37
2023-10-19T05:50:00.862Z,6.20
2023-10-19T05:52:28.922Z,7.43
2023-10-19T05:54:58.587Z,2.83
2023-10-19T05:57:27.928Z,2.10
2023-10-19T05:59:55.844Z,5.37
2023-10-19T06:02:32.340Z,4.83
2023-10-19T06:05:01.586Z,3.10
2023-10-19T06:07:29.830Z,1.97
2023-10-19T06:09:57.691Z,3.40
2023-10-19T06:12:27.279Z,2.83
2023-10-19T06:14:55.254Z,2.47
2023-10-19T06:17:23.351Z,3.50
2023-10-19T06:19:51.436Z,1.77
2023-10-19T06:22:19.440Z,3.33
2023-10-19T06:24:47.337Z,3.43
2023-10-19T06:27:15.408Z,2.67
2023-10-19T06:29:45.501Z,4.23
2023-10-19T06:32:14.765Z,6.40
2023-10-19T06:34:42.876Z,3.57
2023-10-19T06:37:11.871Z,4.03
2023-10-19T06:39:42.134Z,3.20
2023-10-19T06:42:21.737Z,4.27
2023-10-19T06:44:54.494Z,4.03
2023-10-19T06:47:21.580Z,3.13
2023-10-19T06:49:49.767Z,6.77
2023-10-19T06:52:17.101Z,4.23
2023-10-19T06:54:45.088Z,5.07
2023-10-19T06:57:13.315Z,4.03
2023-10-19T06:59:41.548Z,2.83
2023-10-19T07:02:11.086Z,6.73
2023-10-19T07:04:39.304Z,4.80
2023-10-19T07:07:07.277Z,4.57
2023-10-19T07:09:36.193Z,4.57
2023-10-19T07:12:04.320Z,8.63
2023-10-19T07:14:32.530Z,4.73
2023-10-19T07:17:00.891Z,4.97
2023-10-19T07:19:31.064Z,6.60
2023-10-19T07:21:59.844Z,6.13
2023-10-19T07:24:27.875Z,4.40
2023-10-19T07:27:04.876Z,4.33
2023-10-19T07:29:34.859Z,4.40
2023-10-19T07:32:03.557Z,4.83
2023-10-19T07:34:36.040Z,6.37
2023-10-19T07:37:04.970Z,3.30
2023-10-19T07:39:35.078Z,4.57
2023-10-19T07:42:06.423Z,4.67
2023-10-19T07:44:34.451Z,5.97
2023-10-19T07:47:02.415Z,4.00
2023-10-19T07:49:30.556Z,6.87
2023-10-19T07:52:00.431Z,6.50
2023-10-19T07:54:28.791Z,8.83
2023-10-19T07:56:58.822Z,6.10
2023-10-19T07:59:26.790Z,4.87
2023-10-19T08:01:54.855Z,8.53
2023-10-19T08:04:22.915Z,3.40
2023-10-19T08:06:51.190Z,3.07
2023-10-19T08:09:24.158Z,8.03
2023-10-19T08:11:56.465Z,6.60
2023-10-19T08:14:25.828Z,8.57
2023-10-19T08:16:54.102Z,4.03
2023-10-19T08:19:22.855Z,4.43
2023-10-19T08:21:53.746Z,6.20
2023-10-19T08:24:24.395Z,4.73
2023-10-19T08:26:53.026Z,5.63
2023-10-19T08:29:21.028Z,9.90
2023-10-19T08:31:49.778Z,6.23
2023-10-19T08:34:18.387Z,7.93
2023-10-19T08:36:46.329Z,5.93
2023-10-19T08:39:14.715Z,6.57
2023-10-19T08:41:44.512Z,5.27
2023-10-19T08:44:13.736Z,5.07
2023-10-19T08:46:44.543Z,7.37
2023-10-19T08:49:13.790Z,7.53
2023-10-19T08:51:46.217Z,6.60
2023-10-19T08:54:14.880Z,7.73
2023-10-19T08:56:45.717Z,5.50
2023-10-19T08:59:13.942Z,9.93
2023-10-19T09:01:44.512Z,6.70
2023-10-19T09:04:12.928Z,8.93
2023-10-19T09:06:43.684Z,5.47
2023-10-19T09:09:17.851Z,7.40
2023-10-19T09:11:47.465Z,5.53
2023-10-19T09:14:16.077Z,9.67
2023-10-19T09:16:57.146Z,6.50
2023-10-19T09:19:41.078Z,7.20
2023-10-19T09:22:19.777Z,7.00
2023-10-19T09:24:48.099Z,8.20
2023-10-19T09:27:19.725Z,8.07
2023-10-19T09:29:49.110Z,2.87
2023-10-19T09:32:17.750Z,9.37
2023-10-19T09:34:48.700Z,6.70
2023-10-19T09:37:18.795Z,8.90
2023-10-19T09:39:46.868Z,3.60
2023-10-19T09:42:19.003Z,7.70
2023-10-19T09:44:49.936Z,7.17
2023-10-19T09:47:37.149Z,6.07
2023-10-19T09:50:07.192Z,4.37
2023-10-19T09:52:35.787Z,10.17
2023-10-19T09:55:12.919Z,11.33
2023-10-19T09:57:49.241Z,8.50
2023-10-19T10:00:24.565Z,9.07
2023-10-19T10:02:53.348Z,6.97
2023-10-19T10:05:52.891Z,10.80
2023-10-19T10:08:38.767Z,8.90
2023-10-19T10:11:27.613Z,12.43
2023-10-19T10:13:58.541Z,11.57
2023-10-19T10:16:27.980Z,13.37
2023-10-19T10:19:01.510Z,7.83
2023-10-19T10:21:31.089Z,9.30
2023-10-19T10:24:01.471Z,6.57
2023-10-19T10:26:36.462Z,7.37
2023-10-19T10:29:20.959Z,6.70
2023-10-19T10:31:50.643Z,9.17
2023-10-19T10:34:46.871Z,7.70
2023-10-19T10:37:15.753Z,9.70
2023-10-19T10:39:46.331Z,4.40
2023-10-19T10:42:16.014Z,7.57
2023-10-19T10:44:48.237Z,7.13
2023-10-19T10:47:23.075Z,10.13
2023-10-19T10:49:52.611Z,7.63
2023-10-19T10:52:31.259Z,7.03
2023-10-19T10:55:00.441Z,8.23
2023-10-19T10:57:35.242Z,6.17
2023-10-19T11:00:07.830Z,7.93
2023-10-19T11:02:36.996Z,13.73
2023-10-19T11:05:05.909Z,7.37
2023-10-19T11:07:34.149Z,6.17
2023-10-19T11:10:03.044Z,5.17
2023-10-19T11:12:31.417Z,7.73
2023-10-19T11:15:00.651Z,7.03
2023-10-19T11:17:32.800Z,8.30
2023-10-19T11:20:01.611Z,6.37
2023-10-19T11:22:29.717Z,7.10
2023-10-19T11:24:57.858Z,7.87
2023-10-19T11:27:30.080Z,6.47
2023-10-19T11:29:59.218Z,8.20
2023-10-19T11:32:28.168Z,6.67
2023-10-19T11:34:57.989Z,6.73
2023-10-19T11:37:25.910Z,8.50
2023-10-19T11:39:53.815Z,11.20
2023-10-19T11:42:23.859Z,7.57
2023-10-19T11:44:51.778Z,7.80
2023-10-19T11:47:21.427Z,6.20
2023-10-19T11:49:49.514Z,6.83
2023-10-19T11:52:20.263Z,4.07
2023-10-19T11:54:48.588Z,6.27
2023-10-19T11:57:16.610Z,3.80
2023-10-19T11:59:45.451Z,8.50
2023-10-19T12:02:13.786Z,8.20
2023-10-19T12:04:41.918Z,6.20
2023-10-19T12:07:10.614Z,7.60
2023-10-19T12:09:42.411Z,4.53
2023-10-19T12:12:10.294Z,7.47
2023-10-19T12:14:38.499Z,6.30
2023-10-19T12:17:09.063Z,7.73
2023-10-19T12:19:37.269Z,6.30
2023-10-19T12:22:05.290Z,5.33
2023-10-19T12:24:33.334Z,8.33
2023-10-19T12:27:03.295Z,6.97
2023-10-19T12:29:32.953Z,5.70
2023-10-19T12:32:01.761Z,5.30
2023-10-19T12:34:31.240Z,9.93
2023-10-19T12:36:59.997Z,9.27
2023-10-19T12:39:44.352Z,9.37
2023-10-19T12:42:15.366Z,4.77
2023-10-19T12:44:47.593Z,6.63
2023-10-19T12:47:17.535Z,8.37
2023-10-19T12:49:47.341Z,5.40
2023-10-19T12:52:16.004Z,7.80
2023-10-19T12:54:46.743Z,10.07
2023-10-19T12:57:16.214Z,7.43
2023-10-19T12:59:45.040Z,8.67
2023-10-19T13:02:16.393Z,10.63
2023-10-19T13:04:47.774Z,12.47
2023-10-19T13:07:15.952Z,10.57
2023-10-19T13:09:45.504Z,8.10
2023-10-19T13:12:13.810Z,4.70
2023-10-19T13:14:45.176Z,9.13
2023-10-19T13:17:13.295Z,7.93
2023-10-19T13:19:41.447Z,7.90
2023-10-19T13:22:09.500Z,7.73
2023-10-19T13:24:42.361Z,9.80
2023-10-19T13:27:10.515Z,5.07
2023-10-19T13:29:42.799Z,7.17
2023-10-19T13:32:12.865Z,5.77
2023-10-19T13:34:41.685Z,10.83
2023-10-19T13:37:09.878Z,4.20
2023-10-19T13:39:37.888Z,9.30
2023-10-19T13:42:07.299Z,6.37
2023-10-19T13:44:35.317Z,7.27
2023-10-19T13:47:06.266Z,10.03
2023-10-19T13:49:36.633Z,7.33
2023-10-19T13:52:05.601Z,8.57
2023-10-19T13:54:34.053Z,4.93
2023-10-19T13:57:02.286Z,6.90
2023-10-19T13:59:34.615Z,9.50
2023-10-19T14:02:03.654Z,7.97
2023-10-19T14:04:32.413Z,10.70
2023-10-19T14:07:01.916Z,8.53
2023-10-19T14:09:32.929Z,7.23
2023-10-19T14:12:00.973Z,9.60
2023-10-19T14:14:28.947Z,10.23
2023-10-19T14:16:57.083Z,10.50
2023-10-19T14:19:25.023Z,6.03
2023-10-19T14:21:53.703Z,7.43
2023-10-19T14:24:23.188Z,6.10
2023-10-19T14:26:51.166Z,5.20
2023-10-19T14:29:19.280Z,4.70
2023-10-19T14:31:47.383Z,4.73
2023-10-19T14:34:15.388Z,4.90
2023-10-19T14:36:43.370Z,7.50
2023-10-19T14:39:11.429Z,7.10
2023-10-19T14:41:41.336Z,4.70
2023-10-19T14:44:10.524Z,12.07
2023-10-19T14:46:38.768Z,7.20
2023-10-19T14:49:07.626Z,4.20
2023-10-19T14:51:35.509Z,5.07
2023-10-19T14:54:03.857Z,3.93
2023-10-19T14:56:31.759Z,6.93
2023-10-19T14:59:01.333Z,8.53
2023-10-19T15:01:29.437Z,6.10
2023-10-19T15:03:57.513Z,6.50
2023-10-19T15:06:25.438Z,6.93
2023-10-19T15:08:53.436Z,5.27
2023-10-19T15:11:23.269Z,7.60
2023-10-19T15:13:52.094Z,6.13
2023-10-19T15:16:21.892Z,4.57
2023-10-19T15:18:49.901Z,3.50
2023-10-19T15:21:18.622Z,6.83
2023-10-19T15:23:47.222Z,4.20
2023-10-19T15:26:19.292Z,6.40
2023-10-19T15:28:47.707Z,6.40
2023-10-19T15:31:16.378Z,4.67
2023-10-19T15:33:46.813Z,4.10
2023-10-19T15:36:14.853Z,5.00
2023-10-19T15:38:42.859Z,4.60
2023-10-19T15:41:13.506Z,4.53
2023-10-19T15:43:41.680Z,5.80
2023-10-19T15:46:14.377Z,4.70
2023-10-19T15:48:42.536Z,7.43
2023-10-19T15:51:15.149Z,5.30
2023-10-19T15:53:43.122Z,10.13
2023-10-19T15:56:11.032Z,4.23
2023-10-19T15:58:39.090Z,5.87
2023-10-19T16:01:08.068Z,4.60
2023-10-19T16:03:36.119Z,4.67
2023-10-19T16:06:06.797Z,6.70
2023-10-19T16:08:37.221Z,3.80
2023-10-19T16:11:05.672Z,4.33
2023-10-19T16:13:33.745Z,2.60
2023-10-19T16:16:04.555Z,4.30
2023-10-19T16:18:32.558Z,3.13
2023-10-19T16:21:01.317Z,2.97
2023-10-19T16:23:29.261Z,2.30
2023-10-19T16:26:04.346Z,5.13
2023-10-19T16:28:33.567Z,3.07
2023-10-19T16:31:05.147Z,5.90
2023-10-19T16:33:33.122Z,4.17
2023-10-19T16:36:01.080Z,3.57
2023-10-19T16:38:29.663Z,5.27
2023-10-19T16:41:02.744Z,4.77
2023-10-19T16:43:30.768Z,4.53
2023-10-19T16:46:00.844Z,2.60
2023-10-19T16:48:28.994Z,3.03
2023-10-19T16:51:02.401Z,3.70
2023-10-19T16:53:30.603Z,2.83
2023-10-19T16:56:01.478Z,6.20
2023-10-19T16:58:31.309Z,10.03
2023-10-19T17:00:59.940Z,5.63
2023-10-19T17:03:30.305Z,5.37
2023-10-19T17:05:58.489Z,5.00
2023-10-19T17:08:26.590Z,4.37
2023-10-19T17:10:56.053Z,4.60
2023-10-19T17:13:24.711Z,3.37
2023-10-19T17:15:54.776Z,5.60
2023-10-19T17:18:22.803Z,3.23
2023-10-19T17:20:50.860Z,3.87
2023-10-19T17:23:18.935Z,4.53
2023-10-19T17:25:47.364Z,3.67
2023-10-19T17:28:15.516Z,3.07
2023-10-19T17:30:43.793Z,4.47
2023-10-19T17:33:14.256Z,7.53
2023-10-19T17:35:43.506Z,3.63
2023-10-19T17:38:13.211Z,4.20
2023-10-19T17:40:41.307Z,4.20
2023-10-19T17:43:10.737Z,2.73
2023-10-19T17:45:38.856Z,6.13
2023-10-19T17:48:07.716Z,5.17
2023-10-19T17:50:38.599Z,6.50
2023-10-19T17:53:07.233Z,3.03
2023-10-19T17:55:36.991Z,6.43
2023-10-19T17:58:05.798Z,5.63
2023-10-19T18:00:34.651Z,5.13
2023-10-19T18:03:02.905Z,4.80
2023-10-19T18:05:31.207Z,6.07
2023-10-19T18:08:00.594Z,3.43
2023-10-19T18:10:30.956Z,4.70
2023-10-19T18:12:59.634Z,3.90
2023-10-19T18:15:28.576Z,7.50
2023-10-19T18:17:56.863Z,3.97
2023-10-19T18:20:25.181Z,7.00
2023-10-19T18:22:53.328Z,3.70
2023-10-19T18:25:24.926Z,3.37
2023-10-19T18:27:53.051Z,5.13
2023-10-19T18:30:21.026Z,6.13
2023-10-19T18:32:50.090Z,3.93
2023-10-19T18:35:18.355Z,5.77
2023-10-19T18:37:50.511Z,6.93
2023-10-19T18:40:21.563Z,5.43
2023-10-19T18:42:51.027Z,5.27
2023-10-19T18:45:19.323Z,5.43
2023-10-19T18:47:47.572Z,4.33
2023-10-19T18:50:32.925Z,5.53
2023-10-19T18:53:04.787Z,7.00
2023-10-19T18:55:33.210Z,5.10
2023-10-19T18:58:03.920Z,4.27
2023-10-19T19:00:34.155Z,6.97
2023-10-19T19:03:02.359Z,4.33
2023-10-19T19:05:32.341Z,4.77
2023-10-19T19:08:00.482Z,8.17
2023-10-19T19:10:34.236Z,4.37
2023-10-19T19:13:03.960Z,4.57
2023-10-19T19:15:32.753Z,5.77
2023-10-19T19:18:00.865Z,6.17
2023-10-19T19:20:29.353Z,5.77
2023-10-19T19:22:58.329Z,4.90
2023-10-19T19:25:26.503Z,4.13
2023-10-19T19:27:54.813Z,5.03
2023-10-19T19:30:24.259Z,5.17
2023-10-19T19:32:52.438Z,5.07
2023-10-19T19:35:21.011Z,3.67
2023-10-19T19:37:49.113Z,4.37
2023-10-19T19:40:19.129Z,8.70
2023-10-19T19:42:47.195Z,4.73
2023-10-19T19:45:16.214Z,7.63
2023-10-19T19:47:46.591Z,7.83
2023-10-19T19:50:15.674Z,5.17
2023-10-19T19:52:43.830Z,5.13
2023-10-19T19:55:14.100Z,3.80
2023-10-19T19:57:43.807Z,4.83
2023-10-19T20:00:16.228Z,4.07
2023-10-19T20:02:47.781Z,6.03
2023-10-19T20:05:18.156Z,4.80
2023-10-19T20:07:46.929Z,6.03
2023-10-19T20:10:15.492Z,3.60
2023-10-19T20:12:46.135Z,3.93
2023-10-19T20:15:16.089Z,4.60
2023-10-19T20:17:45.988Z,7.97
2023-10-19T20:20:14.324Z,4.07
2023-10-19T20:22:44.085Z,6.57
2023-10-19T20:25:13.547Z,4.90
2023-10-19T20:27:42.910Z,4.67
2023-10-19T20:30:14.147Z,6.27
2023-10-19T20:32:42.974Z,6.23
2023-10-19T20:35:14.503Z,6.43
2023-10-19T20:37:43.433Z,3.93
2023-10-19T20:40:13.346Z,4.47
2023-10-19T20:42:44.635Z,12.17
2023-10-19T20:45:13.202Z,7.03
2023-10-19T20:47:42.942Z,6.20
2023-10-19T20:50:12.628Z,3.50
2023-10-19T20:52:41.880Z,5.87
2023-10-19T20:55:10.642Z,5.80
2023-10-19T20:57:39.037Z,4.87
2023-10-19T21:00:09.722Z,6.80
2023-10-19T21:02:37.882Z,5.83
2023-10-19T21:05:07.553Z,5.87
2023-10-19T21:07:36.891Z,8.00
2023-10-19T21:10:07.450Z,5.67
2023-10-19T21:12:35.458Z,6.23
2023-10-19T21:15:03.502Z,4.87
2023-10-19T21:17:33.248Z,6.83
2023-10-19T21:20:01.491Z,6.47
2023-10-19T21:22:29.521Z,9.47
2023-10-19T21:24:58.822Z,4.80
2023-10-19T21:27:26.802Z,10.57
2023-10-19T21:29:54.667Z,6.07
2023-10-19T21:32:22.586Z,4.60
2023-10-19T21:34:50.922Z,8.87
2023-10-19T21:37:18.898Z,8.13
2023-10-19T21:39:46.840Z,7.23
2023-10-19T21:42:16.909Z,6.67
2023-10-19T21:44:47.178Z,7.17
2023-10-19T21:47:17.343Z,6.80
2023-10-19T21:49:46.161Z,5.47
2023-10-19T21:52:14.141Z,6.37
2023-10-19T21:54:42.215Z,7.10
2023-10-19T21:57:10.250Z,7.10
2023-10-19T21:59:39.652Z,6.93
2023-10-19T22:02:07.958Z,8.63
2023-10-19T22:04:36.812Z,5.10
2023-10-19T22:07:06.322Z,7.30
2023-10-19T22:09:34.795Z,10.17
2023-10-19T22:12:03.044Z,5.13
2023-10-19T22:14:31.516Z,6.70
2023-10-19T22:17:01.282Z,9.20
2023-10-19T22:19:29.239Z,6.27
2023-10-19T22:21:57.423Z,5.67
2023-10-19T22:24:25.338Z,7.70
2023-10-19T22:26:53.370Z,10.23
2023-10-19T22:29:21.743Z,8.87
2023-10-19T22:31:52.188Z,6.77
2023-10-19T22:34:22.147Z,6.43
2023-10-19T22:36:50.495Z,7.77
2023-10-19T22:39:20.569Z,5.43
2023-10-19T22:41:49.642Z,8.00
2023-10-19T22:44:17.883Z,7.50
2023-10-19T22:46:46.014Z,8.33
2023-10-19T22:49:14.056Z,8.43
2023-10-19T22:51:43.755Z,10.23
2023-10-19T22:54:11.717Z,8.17
2023-10-19T22:56:39.622Z,12.23
2023-10-19T22:59:09.744Z,8.53
2023-10-19T23:01:39.485Z,7.83
2023-10-19T23:04:07.997Z,12.90
2023-10-19T23:06:36.121Z,11.10
2023-10-19T23:09:15.670Z,9.53
2023-10-19T23:11:43.864Z,11.53
2023-10-19T23:14:13.150Z,11.10
2023-10-19T23:16:41.471Z,8.23
2023-10-19T23:19:13.720Z,8.57
2023-10-19T23:21:41.757Z,11.90
2023-10-19T23:24:17.695Z,11.00
2023-10-19T23:26:48.052Z,10.17
2023-10-19T23:29:18.959Z,12.67
2023-10-19T23:31:49.506Z,12.17
2023-10-19T23:34:17.699Z,13.00
2023-10-19T23:36:46.052Z,10.50
2023-10-19T23:39:24.197Z,11.00
2023-10-19T23:41:52.844Z,12.23
2023-10-19T23:44:23.024Z,14.17
2023-10-19T23:46:50.982Z,13.10
2023-10-19T23:49:18.836Z,10.07
2023-10-19T23:51:46.728Z,12.67
2023-10-19T23:54:16.486Z,9.20
2023-10-19T23:56:44.911Z,15.40
2023-10-19T23:59:12.903Z,15.73
